createdAt,value
2019-05-17T00:00:08.628Z,11.43
2019-05-17T00:02:37.628Z,11.46
2019-05-17T00:05:08.621Z,11.60
2019-05-17T00:07:37.240Z,11.76
2019-05-17T00:10:07.034Z,11.79
2019-05-17T00:12:36.723Z,11.69
2019-05-17T00:15:07.116Z,11.45
2019-05-17T00:17:37.773Z,11.46
2019-05-17T00:20:10.347Z,11.52
2019-05-17T00:22:38.762Z,11.47
2019-05-17T00:25:07.661Z,11.57
2019-05-17T00:27:36.947Z,11.67
2019-05-17T00:30:10.127Z,11.59
2019-05-17T00:32:38.540Z,11.55
2019-05-17T00:35:07.822Z,11.64
2019-05-17T00:37:37.263Z,11.77
2019-05-17T00:40:08.577Z,11.73
2019-05-17T00:42:37.435Z,11.64
2019-05-17T00:45:07.835Z,11.58
2019-05-17T00:47:37.518Z,11.66
2019-05-17T00:50:07.718Z,11.63
2019-05-17T00:52:36.820Z,11.70
2019-05-17T00:55:09.128Z,11.60
2019-05-17T00:57:37.548Z,11.78
2019-05-17T01:00:08.548Z,12.07
2019-05-17T01:02:37.132Z,12.25
2019-05-17T01:05:07.241Z,12.09
2019-05-17T01:07:37.636Z,11.90
2019-05-17T01:10:07.967Z,11.93
2019-05-17T01:12:36.729Z,11.83
2019-05-17T01:15:08.865Z,11.92
2019-05-17T01:17:37.271Z,11.83
2019-05-17T01:20:09.274Z,11.96
2019-05-17T01:22:37.723Z,12.00
2019-05-17T01:25:07.685Z,12.00
2019-05-17T01:27:38.161Z,12.05
2019-05-17T01:30:07.969Z,12.16
2019-05-17T01:32:37.372Z,11.94
2019-05-17T01:35:07.272Z,11.89
2019-05-17T01:37:36.975Z,11.71
2019-05-17T01:40:07.295Z,11.55
2019-05-17T01:42:37.494Z,11.42
2019-05-17T01:45:07.641Z,11.38
2019-05-17T01:47:36.896Z,11.38
2019-05-17T01:50:08.664Z,11.51
2019-05-17T01:52:37.215Z,11.53
2019-05-17T01:55:07.106Z,11.43
2019-05-17T01:57:37.027Z,11.51
2019-05-17T02:00:12.408Z,11.62
2019-05-17T02:02:42.484Z,11.43
2019-05-17T02:05:11.333Z,11.67
2019-05-17T02:07:39.753Z,11.57
2019-05-17T02:10:09.506Z,11.64
2019-05-17T02:12:37.995Z,11.63
2019-05-17T02:15:10.252Z,11.55
2019-05-17T02:17:38.677Z,11.36
2019-05-17T02:20:08.804Z,11.43
2019-05-17T02:22:37.232Z,11.56
2019-05-17T02:25:10.366Z,11.40
2019-05-17T02:27:41.863Z,11.35
2019-05-17T02:30:14.041Z,11.39
2019-05-17T02:32:43.097Z,11.41
2019-05-17T02:35:14.274Z,11.22
2019-05-17T02:37:43.392Z,11.26
2019-05-17T02:40:14.462Z,11.13
2019-05-17T02:42:43.420Z,11.06
2019-05-17T02:45:13.338Z,11.12
2019-05-17T02:47:43.554Z,11.28
2019-05-17T02:50:13.058Z,11.20
2019-05-17T02:52:43.476Z,11.25
2019-05-17T02:55:12.874Z,11.31
2019-05-17T02:57:43.435Z,11.23
2019-05-17T03:00:13.311Z,11.28
2019-05-17T03:02:43.471Z,11.36
2019-05-17T03:05:13.601Z,11.34
2019-05-17T03:07:43.982Z,11.45
2019-05-17T03:10:22.899Z,11.61
2019-05-17T03:12:44.544Z,11.40
2019-05-17T03:15:13.269Z,11.55
2019-05-17T03:17:43.490Z,11.39
2019-05-17T03:20:13.198Z,11.38
2019-05-17T03:22:43.884Z,11.31
2019-05-17T03:25:14.472Z,11.38
2019-05-17T03:27:43.551Z,11.53
2019-05-17T03:30:18.228Z,11.52
2019-05-17T03:32:48.303Z,11.53
2019-05-17T03:35:17.662Z,11.52
2019-05-17T03:37:45.976Z,11.60
2019-05-17T03:40:35.056Z,11.37
2019-05-17T03:42:45.040Z,11.50
2019-05-17T03:45:14.245Z,11.52
2019-05-17T03:47:44.492Z,11.46
2019-05-17T03:50:14.024Z,11.56
2019-05-17T03:52:44.391Z,11.51
2019-05-17T03:55:13.436Z,11.60
2019-05-17T03:57:44.175Z,11.53
2019-05-17T04:00:13.545Z,11.53
2019-05-17T04:02:44.345Z,11.62
2019-05-17T04:05:12.883Z,11.72
2019-05-17T04:07:43.622Z,11.50
2019-05-17T04:10:14.987Z,11.56
2019-05-17T04:12:44.141Z,11.44
2019-05-17T04:15:13.662Z,11.42
2019-05-17T04:17:43.842Z,11.39
2019-05-17T04:20:13.679Z,11.37
2019-05-17T04:22:44.060Z,11.40
2019-05-17T04:25:13.733Z,11.42
2019-05-17T04:27:43.540Z,11.45
2019-05-17T04:30:12.888Z,11.43
2019-05-17T04:32:44.055Z,11.29
2019-05-17T04:35:13.325Z,11.37
2019-05-17T04:37:44.470Z,11.45
2019-05-17T04:40:14.309Z,11.39
2019-05-17T04:42:44.281Z,11.51
2019-05-17T04:45:13.385Z,11.65
2019-05-17T04:47:44.356Z,11.81
2019-05-17T04:50:13.614Z,11.96
2019-05-17T04:52:43.128Z,11.95
2019-05-17T04:55:13.784Z,11.83
2019-05-17T04:57:43.774Z,11.78
2019-05-17T05:00:13.927Z,11.76
2019-05-17T05:02:43.858Z,11.69
2019-05-17T05:05:14.492Z,11.72
2019-05-17T05:07:43.750Z,11.83
2019-05-17T05:10:13.978Z,11.80
2019-05-17T05:12:43.734Z,11.70
2019-05-17T05:15:13.130Z,11.88
2019-05-17T05:17:42.503Z,12.00
2019-05-17T05:20:13.333Z,12.11
2019-05-17T05:22:42.643Z,12.07
2019-05-17T05:25:12.465Z,12.05
2019-05-17T05:27:42.742Z,11.95
2019-05-17T05:30:12.083Z,11.87
2019-05-17T05:32:42.750Z,12.02
2019-05-17T05:35:12.412Z,12.05
2019-05-17T05:37:42.451Z,12.21
2019-05-17T05:40:12.714Z,12.09
2019-05-17T05:42:42.622Z,12.07
2019-05-17T05:45:12.114Z,12.05
2019-05-17T05:47:41.705Z,12.13
2019-05-17T05:50:12.485Z,12.12
2019-05-17T05:52:42.354Z,12.12
2019-05-17T05:55:12.277Z,12.29
2019-05-17T05:57:41.969Z,12.17
2019-05-17T06:00:13.773Z,12.18
2019-05-17T06:02:42.389Z,12.28
2019-05-17T06:05:14.916Z,12.34
2019-05-17T06:07:41.828Z,12.41
2019-05-17T06:10:13.253Z,12.58
2019-05-17T06:12:43.357Z,12.92
2019-05-17T06:15:12.958Z,12.95
2019-05-17T06:17:42.960Z,13.13
2019-05-17T06:20:11.953Z,14.00
2019-05-17T06:22:42.758Z,14.57
2019-05-17T06:25:14.736Z,15.08
2019-05-17T06:27:41.522Z,15.13
2019-05-17T06:30:12.563Z,14.77
2019-05-17T06:32:43.237Z,14.35
2019-05-17T06:35:12.576Z,14.69
2019-05-17T06:37:42.384Z,15.21
2019-05-17T06:40:12.978Z,15.13
2019-05-17T06:42:45.223Z,14.50
2019-05-17T06:45:12.801Z,14.03
2019-05-17T06:47:42.654Z,14.17
2019-05-17T06:50:14.513Z,13.94
2019-05-17T06:52:43.463Z,13.68
2019-05-17T06:55:12.835Z,13.41
2019-05-17T06:57:43.354Z,14.58
2019-05-17T07:00:18.231Z,16.30
2019-05-17T07:02:42.061Z,16.62
2019-05-17T07:05:12.865Z,17.30
2019-05-17T07:07:41.281Z,18.22
2019-05-17T07:10:11.305Z,18.16
2019-05-17T07:12:54.138Z,18.97
2019-05-17T07:15:10.794Z,19.42
2019-05-17T07:17:40.075Z,20.12
2019-05-17T07:20:10.384Z,19.91
2019-05-17T07:22:40.775Z,20.37
2019-05-17T07:25:10.737Z,20.71
2019-05-17T07:27:44.906Z,20.99
2019-05-17T07:30:10.286Z,22.18
2019-05-17T07:32:40.524Z,22.38
2019-05-17T07:35:10.767Z,20.27
2019-05-17T07:37:39.874Z,18.83
2019-05-17T07:40:10.840Z,17.54
2019-05-17T07:42:39.734Z,17.48
2019-05-17T07:45:10.283Z,18.45
2019-05-17T07:47:40.354Z,18.95
2019-05-17T07:50:11.429Z,18.37
2019-05-17T07:52:40.138Z,19.28
2019-05-17T07:55:10.897Z,20.28
2019-05-17T07:57:41.059Z,20.89
2019-05-17T08:00:10.499Z,21.01
2019-05-17T08:02:40.080Z,20.86
2019-05-17T08:05:10.037Z,20.54
2019-05-17T08:07:40.498Z,20.44
2019-05-17T08:10:10.867Z,20.38
2019-05-17T08:12:40.758Z,20.61
2019-05-17T08:15:11.027Z,20.79
2019-05-17T08:17:39.920Z,20.62
2019-05-17T08:20:10.332Z,19.82
2019-05-17T08:22:39.946Z,19.95
2019-05-17T08:25:10.143Z,20.41
2019-05-17T08:27:40.526Z,20.12
2019-05-17T08:30:10.914Z,19.91
2019-05-17T08:32:40.270Z,20.04
2019-05-17T08:35:11.291Z,20.05
2019-05-17T08:37:42.290Z,20.21
2019-05-17T08:40:10.798Z,19.52
2019-05-17T08:42:40.708Z,19.21
2019-05-17T08:45:09.835Z,19.38
2019-05-17T08:47:39.666Z,19.81
2019-05-17T08:50:11.245Z,19.74
2019-05-17T08:52:40.224Z,19.69
2019-05-17T08:55:09.908Z,19.87
2019-05-17T08:57:40.150Z,19.91
2019-05-17T09:00:10.739Z,19.63
2019-05-17T09:02:40.866Z,19.03
2019-05-17T09:05:10.055Z,19.08
2019-05-17T09:07:40.094Z,19.34
2019-05-17T09:10:10.135Z,19.91
2019-05-17T09:12:40.867Z,20.24
2019-05-17T09:15:10.050Z,19.42
2019-05-17T09:17:39.585Z,18.95
2019-05-17T09:20:10.640Z,19.12
2019-05-17T09:22:39.848Z,19.50
2019-05-17T09:25:14.970Z,19.28
2019-05-17T09:27:39.863Z,19.50
2019-05-17T09:30:10.654Z,19.06
2019-05-17T09:32:40.404Z,18.94
2019-05-17T09:35:10.483Z,18.61
2019-05-17T09:37:41.431Z,18.86
2019-05-17T09:40:09.522Z,18.96
2019-05-17T09:42:40.757Z,18.97
2019-05-17T09:45:09.811Z,19.08
2019-05-17T09:47:39.701Z,18.96
2019-05-17T09:50:09.973Z,18.22
2019-05-17T09:52:40.604Z,17.91
2019-05-17T09:55:09.913Z,17.70
2019-05-17T09:57:41.013Z,17.45
2019-05-17T10:00:10.197Z,17.84
2019-05-17T10:02:40.244Z,18.11
2019-05-17T10:05:10.555Z,18.50
2019-05-17T10:07:40.254Z,18.43
2019-05-17T10:10:10.422Z,18.29
2019-05-17T10:12:40.327Z,18.26
2019-05-17T10:15:10.064Z,17.84
2019-05-17T10:17:38.676Z,17.91
2019-05-17T10:20:10.532Z,18.19
2019-05-17T10:22:40.219Z,18.48
2019-05-17T10:25:09.662Z,18.25
2019-05-17T10:27:40.385Z,18.10
2019-05-17T10:30:10.308Z,18.11
2019-05-17T10:32:40.802Z,18.13
2019-05-17T10:35:09.648Z,17.63
2019-05-17T10:37:40.736Z,17.24
2019-05-17T10:40:10.394Z,17.38
2019-05-17T10:42:39.583Z,17.12
2019-05-17T10:45:11.020Z,16.94
2019-05-17T10:47:39.609Z,16.80
2019-05-17T10:50:10.865Z,16.77
2019-05-17T10:52:41.061Z,16.38
2019-05-17T10:55:10.542Z,16.36
2019-05-17T10:57:39.312Z,16.30
2019-05-17T11:00:10.102Z,16.68
2019-05-17T11:02:38.693Z,17.13
2019-05-17T11:05:07.529Z,17.23
2019-05-17T11:07:35.952Z,17.29
2019-05-17T11:10:11.534Z,17.33
2019-05-17T11:12:38.621Z,17.37
2019-05-17T11:15:11.661Z,17.54
2019-05-17T11:17:38.509Z,17.81
2019-05-17T11:20:08.124Z,17.79
2019-05-17T11:22:36.543Z,17.44
2019-05-17T11:25:06.399Z,17.35
2019-05-17T11:27:35.138Z,17.39
2019-05-17T11:30:07.190Z,17.71
2019-05-17T11:32:35.593Z,17.66
2019-05-17T11:35:05.157Z,17.54
2019-05-17T11:37:33.543Z,17.10
2019-05-17T11:40:01.964Z,17.01
2019-05-17T11:42:30.365Z,16.92
2019-05-17T11:44:58.782Z,17.02
2019-05-17T11:47:27.181Z,17.36
2019-05-17T11:49:55.605Z,17.65
2019-05-17T11:52:23.998Z,17.97
2019-05-17T11:54:52.434Z,18.01
2019-05-17T11:57:20.835Z,17.85
2019-05-17T11:59:49.265Z,17.78
2019-05-17T12:02:17.668Z,17.55
2019-05-17T12:04:46.081Z,17.60
2019-05-17T12:07:14.485Z,17.62
2019-05-17T12:09:42.927Z,17.51
2019-05-17T12:12:11.332Z,17.51
2019-05-17T12:14:39.763Z,17.23
2019-05-17T12:17:08.208Z,17.30
2019-05-17T12:19:37.358Z,17.27
2019-05-17T12:22:05.895Z,17.14
2019-05-17T12:24:34.316Z,17.29
2019-05-17T12:27:02.707Z,17.15
2019-05-17T12:29:31.126Z,17.39
2019-05-17T12:31:59.539Z,17.48
2019-05-17T12:34:27.954Z,17.38
2019-05-17T12:36:56.354Z,17.33
2019-05-17T12:39:24.770Z,17.46
2019-05-17T12:41:53.211Z,17.16
2019-05-17T12:44:21.629Z,16.96
2019-05-17T12:46:50.040Z,17.00
2019-05-17T12:49:18.458Z,16.72
2019-05-17T12:51:46.874Z,16.61
2019-05-17T12:54:15.290Z,16.43
2019-05-17T12:56:43.697Z,16.32
2019-05-17T12:59:12.116Z,16.19
2019-05-17T13:01:40.525Z,16.14
2019-05-17T13:04:08.962Z,16.15
2019-05-17T13:06:37.366Z,16.26
2019-05-17T13:09:06.508Z,16.49
2019-05-17T13:11:34.920Z,16.57
2019-05-17T13:14:03.420Z,16.57
2019-05-17T13:16:31.819Z,16.47
2019-05-17T13:19:00.463Z,16.50
2019-05-17T13:21:28.888Z,16.46
2019-05-17T13:23:57.311Z,16.53
2019-05-17T13:26:25.730Z,16.48
2019-05-17T13:28:54.133Z,16.53
2019-05-17T13:31:22.557Z,16.85
2019-05-17T13:33:51.055Z,16.98
2019-05-17T13:36:19.460Z,17.12
2019-05-17T13:38:47.876Z,17.07
2019-05-17T13:41:16.311Z,17.05
2019-05-17T13:43:44.803Z,17.07
2019-05-17T13:46:13.220Z,17.00
2019-05-17T13:48:41.611Z,16.96
2019-05-17T13:51:10.187Z,17.09
2019-05-17T13:53:38.597Z,16.95
2019-05-17T13:56:07.014Z,16.96
2019-05-17T13:58:35.447Z,16.65
2019-05-17T14:01:03.851Z,16.20
2019-05-17T14:03:32.306Z,16.11
2019-05-17T14:06:00.808Z,16.10
2019-05-17T14:08:29.253Z,15.99
2019-05-17T14:10:57.687Z,16.16
2019-05-17T14:13:26.103Z,16.35
2019-05-17T14:15:54.517Z,16.48
2019-05-17T14:18:22.927Z,16.30
2019-05-17T14:20:51.334Z,16.37
2019-05-17T14:23:19.738Z,16.64
2019-05-17T14:25:48.160Z,16.59
2019-05-17T14:28:16.566Z,16.90
2019-05-17T14:30:44.974Z,16.78
2019-05-17T14:33:13.380Z,16.88
2019-05-17T14:35:41.795Z,16.77
2019-05-17T14:38:10.214Z,16.57
2019-05-17T14:41:04.973Z,16.69
2019-05-17T14:43:08.768Z,16.55
2019-05-17T14:45:37.182Z,16.55
2019-05-17T14:48:05.652Z,16.52
2019-05-17T14:50:34.130Z,16.48
2019-05-17T14:53:02.541Z,16.68
2019-05-17T14:55:30.946Z,16.75
2019-05-17T14:57:59.361Z,16.79
2019-05-17T15:00:27.777Z,16.92
2019-05-17T15:02:56.172Z,16.92
2019-05-17T15:05:24.589Z,16.83
2019-05-17T15:07:53.006Z,16.81
2019-05-17T15:10:21.416Z,16.84
2019-05-17T15:12:49.838Z,16.52
2019-05-17T15:15:25.650Z,16.49
2019-05-17T15:17:48.794Z,16.53
2019-05-17T15:20:17.206Z,16.49
2019-05-17T15:22:45.628Z,16.44
2019-05-17T15:25:15.581Z,16.40
2019-05-17T15:27:43.999Z,16.44
2019-05-17T15:30:12.747Z,16.37
2019-05-17T15:32:41.166Z,16.38
2019-05-17T15:35:09.854Z,16.42
2019-05-17T15:37:38.273Z,16.66
2019-05-17T15:40:07.325Z,16.85
2019-05-17T15:42:43.702Z,17.09
2019-05-17T15:45:08.758Z,17.00
2019-05-17T15:47:37.117Z,17.00
2019-05-17T15:50:07.765Z,17.15
2019-05-17T15:52:36.279Z,17.08
2019-05-17T15:55:06.256Z,17.21
2019-05-17T15:57:34.670Z,17.24
2019-05-17T16:00:03.576Z,17.35
2019-05-17T16:02:32.339Z,17.27
2019-05-17T16:05:00.740Z,17.07
2019-05-17T16:07:29.217Z,17.04
2019-05-17T16:09:57.622Z,17.23
2019-05-17T16:12:26.046Z,17.25
2019-05-17T16:14:54.702Z,17.18
2019-05-17T16:17:23.127Z,17.22
2019-05-17T16:19:51.538Z,17.18
2019-05-17T16:22:20.042Z,17.34
2019-05-17T16:24:48.444Z,17.12
2019-05-17T16:27:16.858Z,16.84
2019-05-17T16:29:45.262Z,16.75
2019-05-17T16:32:13.685Z,16.81
2019-05-17T16:34:42.083Z,16.95
2019-05-17T16:37:10.482Z,17.05
2019-05-17T16:39:38.906Z,17.00
2019-05-17T16:42:07.299Z,16.97
2019-05-17T16:44:35.714Z,16.77
2019-05-17T16:47:04.175Z,16.63
2019-05-17T16:49:32.617Z,16.73
2019-05-17T16:52:01.101Z,16.64
2019-05-17T16:54:29.822Z,16.54
2019-05-17T16:56:58.222Z,16.55
2019-05-17T16:59:26.629Z,16.51
2019-05-17T17:01:55.039Z,16.39
2019-05-17T17:04:23.455Z,16.35
2019-05-17T17:06:51.854Z,16.55
2019-05-17T17:09:20.267Z,16.74
2019-05-17T17:11:48.672Z,16.78
2019-05-17T17:14:17.075Z,16.72
2019-05-17T17:16:45.480Z,16.64
2019-05-17T17:19:13.897Z,16.73
2019-05-17T17:21:42.465Z,16.86
2019-05-17T17:24:11.189Z,16.87
2019-05-17T17:26:39.578Z,16.77
2019-05-17T17:29:07.984Z,16.97
2019-05-17T17:31:36.413Z,17.01
2019-05-17T17:34:04.890Z,17.11
2019-05-17T17:36:33.293Z,17.22
2019-05-17T17:39:01.719Z,17.38
2019-05-17T17:41:30.113Z,17.52
2019-05-17T17:43:59.388Z,17.55
2019-05-17T17:46:27.903Z,17.51
2019-05-17T17:48:56.312Z,17.58
2019-05-17T17:51:24.735Z,17.68
2019-05-17T17:53:53.156Z,17.50
2019-05-17T17:56:21.567Z,17.39
2019-05-17T17:58:49.970Z,17.47
2019-05-17T18:01:18.391Z,17.39
2019-05-17T18:03:46.797Z,17.11
2019-05-17T18:06:15.304Z,17.11
2019-05-17T18:08:43.711Z,17.25
2019-05-17T18:11:12.139Z,17.11
2019-05-17T18:13:40.549Z,16.96
2019-05-17T18:16:08.983Z,16.83
2019-05-17T18:18:37.352Z,16.84
2019-05-17T18:21:05.761Z,16.77
2019-05-17T18:23:34.214Z,16.68
2019-05-17T18:26:02.687Z,16.64
2019-05-17T18:28:31.057Z,16.64
2019-05-17T18:30:59.517Z,16.83
2019-05-17T18:33:27.939Z,16.74
2019-05-17T18:35:56.638Z,16.89
2019-05-17T18:38:27.216Z,16.92
2019-05-17T18:40:55.639Z,16.86
2019-05-17T18:43:24.039Z,16.90
2019-05-17T18:45:52.704Z,16.94
2019-05-17T18:48:21.101Z,17.03
2019-05-17T18:50:49.508Z,16.97
2019-05-17T18:53:17.913Z,17.02
2019-05-17T18:55:46.386Z,17.20
2019-05-17T18:58:14.783Z,17.23
2019-05-17T19:00:43.213Z,17.21
2019-05-17T19:03:11.685Z,17.25
2019-05-17T19:05:40.097Z,17.18
2019-05-17T19:08:08.498Z,17.20
2019-05-17T19:10:36.901Z,17.14
2019-05-17T19:13:05.300Z,17.16
2019-05-17T19:15:33.714Z,17.09
2019-05-17T19:18:02.120Z,17.09
2019-05-17T19:20:30.574Z,17.05
2019-05-17T19:22:59.039Z,17.00
2019-05-17T19:25:27.454Z,16.99
2019-05-17T19:27:55.859Z,16.96
2019-05-17T19:30:24.601Z,16.89
2019-05-17T19:32:53.004Z,16.76
2019-05-17T19:35:21.456Z,16.68
2019-05-17T19:37:49.822Z,16.50
2019-05-17T19:40:18.406Z,16.53
2019-05-17T19:42:46.820Z,16.44
2019-05-17T19:45:16.072Z,16.40
2019-05-17T19:47:44.483Z,16.17
2019-05-17T19:50:13.136Z,16.10
2019-05-17T19:52:41.716Z,15.98
2019-05-17T19:55:10.351Z,15.57
2019-05-17T19:57:38.773Z,15.41
2019-05-17T20:00:09.406Z,15.48
2019-05-17T20:02:37.823Z,15.47
2019-05-17T20:05:06.777Z,15.29
2019-05-17T20:07:38.768Z,15.30
2019-05-17T20:10:09.764Z,15.26
2019-05-17T20:12:38.195Z,15.03
2019-05-17T20:15:17.170Z,14.97
2019-05-17T20:17:38.702Z,14.92
2019-05-17T20:20:07.848Z,14.76
2019-05-17T20:22:36.280Z,14.80
2019-05-17T20:25:06.127Z,14.78
2019-05-17T20:27:34.555Z,14.78
2019-05-17T20:30:03.984Z,14.77
2019-05-17T20:32:32.385Z,14.67
2019-05-17T20:35:00.788Z,14.75
2019-05-17T20:37:29.211Z,14.91
2019-05-17T20:39:57.610Z,14.95
2019-05-17T20:42:26.037Z,14.97
2019-05-17T20:44:54.445Z,14.92
2019-05-17T20:47:23.035Z,15.10
2019-05-17T20:49:51.439Z,15.14
2019-05-17T20:52:19.861Z,15.29
2019-05-17T20:54:48.265Z,15.34
2019-05-17T20:57:16.716Z,15.36
2019-05-17T20:59:45.132Z,15.25
2019-05-17T21:02:13.553Z,15.21
2019-05-17T21:04:41.971Z,15.27
2019-05-17T21:07:10.400Z,15.26
2019-05-17T21:09:38.801Z,15.33
2019-05-17T21:12:07.300Z,15.13
2019-05-17T21:14:35.751Z,14.97
2019-05-17T21:17:04.173Z,14.97
2019-05-17T21:19:32.591Z,15.03
2019-05-17T21:22:01.025Z,15.04
2019-05-17T21:24:29.438Z,14.84
2019-05-17T21:26:57.858Z,14.79
2019-05-17T21:29:26.275Z,14.75
2019-05-17T21:31:54.712Z,14.70
2019-05-17T21:34:23.126Z,14.72
2019-05-17T21:36:51.543Z,14.57
2019-05-17T21:39:19.961Z,14.38
2019-05-17T21:41:48.363Z,14.38
2019-05-17T21:44:16.809Z,14.38
2019-05-17T21:46:45.225Z,14.33
2019-05-17T21:49:13.647Z,14.23
2019-05-17T21:51:42.057Z,14.16
2019-05-17T21:54:10.480Z,14.03
2019-05-17T21:56:38.886Z,13.96
2019-05-17T21:59:07.310Z,13.94
2019-05-17T22:01:35.725Z,14.01
2019-05-17T22:04:04.217Z,13.92
2019-05-17T22:06:32.626Z,13.98
2019-05-17T22:09:01.211Z,13.88
2019-05-17T22:11:29.759Z,13.78
2019-05-17T22:13:58.173Z,13.64
2019-05-17T22:16:26.830Z,13.62
2019-05-17T22:18:55.254Z,13.62
2019-05-17T22:21:23.654Z,13.69
2019-05-17T22:23:52.066Z,13.60
2019-05-17T22:26:20.479Z,13.58
2019-05-17T22:28:48.891Z,13.56
2019-05-17T22:31:17.307Z,13.55
2019-05-17T22:33:45.719Z,13.58
2019-05-17T22:36:14.138Z,13.54
2019-05-17T22:38:42.556Z,13.47
2019-05-17T22:41:10.975Z,13.22
2019-05-17T22:43:39.390Z,13.22
2019-05-17T22:46:07.802Z,13.29
2019-05-17T22:48:36.227Z,13.08
2019-05-17T22:51:04.632Z,13.11
2019-05-17T22:53:33.086Z,13.05
2019-05-17T22:56:01.497Z,13.08
2019-05-17T22:58:29.905Z,13.09
2019-05-17T23:00:58.324Z,13.04
2019-05-17T23:03:26.745Z,13.03
2019-05-17T23:05:55.159Z,13.05
2019-05-17T23:08:23.586Z,12.99
2019-05-17T23:10:52.024Z,12.84
2019-05-17T23:13:20.453Z,12.70
2019-05-17T23:16:01.839Z,12.69
2019-05-17T23:18:32.170Z,12.62
2019-05-17T23:21:00.656Z,12.58
2019-05-17T23:23:29.072Z,12.59
2019-05-17T23:25:57.474Z,12.46
2019-05-17T23:28:26.145Z,12.47
2019-05-17T23:30:54.555Z,12.36
2019-05-17T23:33:22.978Z,12.41
2019-05-17T23:35:51.451Z,12.32
2019-05-17T23:38:19.860Z,12.28
2019-05-17T23:40:48.282Z,12.08
2019-05-17T23:43:16.688Z,12.15
2019-05-17T23:45:45.097Z,12.15
2019-05-17T23:48:13.509Z,12.19
2019-05-17T23:50:41.935Z,12.11
2019-05-17T23:53:10.342Z,11.97
2019-05-17T23:55:38.758Z,11.97
2019-05-17T23:58:07.175Z,11.93
